createdAt,value
2022-09-22T00:00:25.638Z,2.77
2022-09-22T00:03:31.654Z,2.90
2022-09-22T00:06:34.852Z,2.90
2022-09-22T00:09:36.393Z,2.83
2022-09-22T00:12:37.957Z,3.00
2022-09-22T00:15:45.047Z,3.10
2022-09-22T00:18:46.772Z,2.90
2022-09-22T00:21:48.500Z,2.90
2022-09-22T00:24:50.084Z,2.70
2022-09-22T00:27:54.472Z,2.90
2022-09-22T00:30:56.048Z,2.80
2022-09-22T00:33:57.668Z,2.57
2022-09-22T00:36:59.298Z,2.80
2022-09-22T00:40:01.064Z,2.60
2022-09-22T00:43:26.110Z,2.77
2022-09-22T00:46:28.840Z,2.50
2022-09-22T00:49:36.528Z,2.37
2022-09-22T00:53:07.405Z,2.53
2022-09-22T00:56:11.845Z,2.30
2022-09-22T00:59:15.984Z,2.57
2022-09-22T01:02:17.701Z,2.37
2022-09-22T01:05:19.964Z,2.50
2022-09-22T01:08:22.129Z,2.30
2022-09-22T01:11:25.321Z,2.27
2022-09-22T01:14:41.084Z,2.10
2022-09-22T01:17:45.710Z,2.30
2022-09-22T01:21:01.333Z,2.30
2022-09-22T01:24:06.038Z,2.70
2022-09-22T01:27:10.698Z,2.87
2022-09-22T01:30:15.195Z,2.83
2022-09-22T01:33:22.591Z,2.20
2022-09-22T01:36:40.491Z,2.17
2022-09-22T01:39:43.623Z,2.40
2022-09-22T01:42:49.332Z,2.50
2022-09-22T01:45:50.974Z,2.63
2022-09-22T01:48:52.937Z,2.53
2022-09-22T01:51:57.827Z,2.60
2022-09-22T01:55:01.361Z,3.17
2022-09-22T01:58:03.011Z,2.57
2022-09-22T02:01:14.929Z,2.80
2022-09-22T02:04:23.945Z,2.77
2022-09-22T02:07:28.832Z,2.30
2022-09-22T02:10:33.998Z,2.30
2022-09-22T02:13:36.825Z,2.43
2022-09-22T02:16:38.455Z,2.37
2022-09-22T02:19:41.096Z,2.27
2022-09-22T02:22:42.763Z,2.23
2022-09-22T02:25:44.589Z,2.30
2022-09-22T02:28:46.303Z,2.30
2022-09-22T02:31:48.626Z,2.57
2022-09-22T02:34:50.529Z,2.50
2022-09-22T02:37:58.199Z,2.20
2022-09-22T02:41:11.792Z,2.33
2022-09-22T02:44:21.506Z,2.50
2022-09-22T02:47:41.511Z,2.77
2022-09-22T02:50:43.475Z,2.23
2022-09-22T02:53:45.131Z,2.40
2022-09-22T02:56:46.789Z,2.20
2022-09-22T02:59:48.463Z,2.50
2022-09-22T03:02:50.120Z,2.33
2022-09-22T03:05:51.712Z,2.30
2022-09-22T03:08:53.291Z,2.60
2022-09-22T03:11:54.973Z,2.03
2022-09-22T03:14:56.591Z,2.30
2022-09-22T03:17:58.233Z,2.20
2022-09-22T03:21:01.038Z,2.10
2022-09-22T03:24:02.746Z,2.20
2022-09-22T03:27:04.438Z,2.10
2022-09-22T03:30:06.941Z,1.97
2022-09-22T03:33:08.592Z,2.33
2022-09-22T03:36:10.292Z,2.33
2022-09-22T03:39:11.894Z,2.20
2022-09-22T03:42:13.521Z,2.50
2022-09-22T03:45:15.477Z,2.30
2022-09-22T03:48:18.310Z,3.03
2022-09-22T03:51:20.217Z,3.10
2022-09-22T03:54:21.925Z,2.80
2022-09-22T03:57:23.506Z,2.80
2022-09-22T04:00:25.158Z,3.03
2022-09-22T04:03:26.759Z,2.70
2022-09-22T04:06:28.333Z,2.57
2022-09-22T04:09:29.919Z,3.00
2022-09-22T04:12:31.570Z,3.00
2022-09-22T04:15:33.785Z,2.73
2022-09-22T04:18:38.757Z,2.50
2022-09-22T04:21:40.378Z,2.47
2022-09-22T04:24:42.006Z,2.73
2022-09-22T04:27:43.584Z,2.93
2022-09-22T04:30:46.569Z,3.13
2022-09-22T04:33:48.204Z,3.13
2022-09-22T04:36:49.924Z,3.23
2022-09-22T04:39:54.194Z,3.10
2022-09-22T04:42:56.296Z,2.80
2022-09-22T04:45:57.899Z,2.53
2022-09-22T04:48:59.610Z,3.43
2022-09-22T04:52:04.065Z,3.03
2022-09-22T04:55:05.940Z,3.50
2022-09-22T04:58:08.011Z,3.93
2022-09-22T05:01:09.663Z,3.20
2022-09-22T05:04:11.778Z,3.20
2022-09-22T05:07:13.380Z,2.90
2022-09-22T05:10:17.954Z,2.87
2022-09-22T05:13:19.800Z,2.90
2022-09-22T05:16:21.676Z,3.60
2022-09-22T05:19:23.422Z,3.50
2022-09-22T05:22:25.066Z,3.70
2022-09-22T05:25:27.419Z,3.40
2022-09-22T05:28:29.603Z,3.30
2022-09-22T05:31:31.237Z,3.60
2022-09-22T05:34:32.983Z,3.60
2022-09-22T05:37:34.596Z,3.10
2022-09-22T05:40:36.276Z,3.80
2022-09-22T05:43:37.868Z,3.53
2022-09-22T05:46:39.571Z,3.90
2022-09-22T05:49:41.165Z,4.00
2022-09-22T05:52:42.781Z,4.07
2022-09-22T05:55:44.529Z,4.10
2022-09-22T05:58:46.992Z,4.60
2022-09-22T06:01:48.728Z,4.37
2022-09-22T06:04:50.805Z,4.67
2022-09-22T06:08:03.521Z,4.80
2022-09-22T06:11:05.404Z,4.30
2022-09-22T06:14:07.031Z,3.97
2022-09-22T06:17:11.897Z,4.43
2022-09-22T06:20:13.560Z,9.07
2022-09-22T06:23:15.510Z,9.63
2022-09-22T06:26:17.149Z,4.70
2022-09-22T06:29:18.737Z,4.40
2022-09-22T06:32:20.434Z,3.10
2022-09-22T06:35:22.503Z,3.80
2022-09-22T06:38:24.319Z,4.30
2022-09-22T06:41:26.299Z,5.20
2022-09-22T06:44:36.195Z,2.40
2022-09-22T06:47:38.573Z,5.17
2022-09-22T06:50:41.211Z,9.47
2022-09-22T06:53:47.516Z,4.17
2022-09-22T06:56:51.384Z,8.43
2022-09-22T06:59:52.932Z,2.20
2022-09-22T07:03:01.320Z,2.97
2022-09-22T07:06:03.159Z,2.20
2022-09-22T07:09:05.446Z,3.07
2022-09-22T07:12:07.193Z,1.93
2022-09-22T07:15:08.976Z,2.20
2022-09-22T07:18:10.614Z,2.17
2022-09-22T07:21:13.928Z,2.10
2022-09-22T07:24:15.742Z,2.30
2022-09-22T07:27:23.146Z,2.27
2022-09-22T07:30:26.292Z,2.50
2022-09-22T07:33:27.897Z,2.20
2022-09-22T07:36:30.611Z,2.60
2022-09-22T07:39:32.182Z,1.90
2022-09-22T07:42:33.869Z,1.80
2022-09-22T07:45:35.516Z,1.90
2022-09-22T07:48:37.899Z,1.80
2022-09-22T07:51:39.593Z,2.00
2022-09-22T07:54:41.840Z,2.10
2022-09-22T07:57:43.429Z,1.97
2022-09-22T08:00:45.124Z,2.03
2022-09-22T08:03:47.403Z,1.80
2022-09-22T08:06:49.975Z,1.63
2022-09-22T08:09:51.625Z,2.63
2022-09-22T08:12:58.168Z,2.30
2022-09-22T08:16:00.153Z,4.00
2022-09-22T08:19:02.968Z,1.60
2022-09-22T08:22:04.581Z,1.57
2022-09-22T08:25:06.582Z,2.00
2022-09-22T08:28:08.234Z,1.50
2022-09-22T08:31:13.464Z,1.30
2022-09-22T08:34:16.687Z,1.20
2022-09-22T08:37:18.533Z,1.50
2022-09-22T08:40:23.661Z,1.93
2022-09-22T08:43:26.274Z,1.73
2022-09-22T08:46:27.893Z,1.70
2022-09-22T08:50:00.716Z,2.70
2022-09-22T08:53:02.922Z,1.93
2022-09-22T08:56:16.867Z,1.50
2022-09-22T08:59:21.051Z,1.50
2022-09-22T09:02:25.429Z,1.50
2022-09-22T09:05:48.660Z,2.00
2022-09-22T09:08:56.088Z,1.53
2022-09-22T09:11:58.201Z,1.50
2022-09-22T09:15:09.318Z,1.30
2022-09-22T09:18:14.692Z,1.60
2022-09-22T09:21:16.406Z,1.80
2022-09-22T09:28:01.772Z,1.70
2022-09-22T09:31:09.458Z,2.10
2022-09-22T09:34:16.665Z,1.90
2022-09-22T09:37:19.166Z,1.53
2022-09-22T09:40:22.262Z,1.83
2022-09-22T09:43:24.220Z,1.60
2022-09-22T09:46:37.021Z,1.50
2022-09-22T09:49:38.676Z,1.77
2022-09-22T09:52:40.390Z,1.80
2022-09-22T09:55:42.301Z,1.60
2022-09-22T09:59:21.881Z,1.30
2022-09-22T10:02:29.929Z,2.10
2022-09-22T10:05:32.663Z,1.50
2022-09-22T10:08:44.147Z,1.50
2022-09-22T10:11:57.179Z,1.50
2022-09-22T10:14:59.572Z,1.57
2022-09-22T10:18:01.705Z,1.50
2022-09-22T10:21:03.629Z,1.87
2022-09-22T10:24:21.435Z,1.87
2022-09-22T10:27:24.947Z,1.50
2022-09-22T10:30:27.450Z,1.37
2022-09-22T10:33:30.536Z,1.43
2022-09-22T10:36:33.290Z,1.57
2022-09-22T10:39:38.146Z,1.87
2022-09-22T10:42:46.168Z,1.53
2022-09-22T10:45:53.472Z,1.80
2022-09-22T10:49:00.164Z,2.20
2022-09-22T10:52:14.124Z,2.30
2022-09-22T10:55:28.376Z,2.93
2022-09-22T10:58:46.901Z,2.60
2022-09-22T11:02:07.412Z,2.97
2022-09-22T11:05:50.632Z,1.63
2022-09-22T11:09:16.848Z,1.60
2022-09-22T11:12:29.785Z,2.00
2022-09-22T11:15:31.405Z,1.80
2022-09-22T11:18:45.250Z,1.67
2022-09-22T11:22:04.115Z,1.80
2022-09-22T11:25:34.013Z,2.17
2022-09-22T11:28:57.303Z,1.70
2022-09-22T11:32:08.808Z,1.40
2022-09-22T11:35:22.445Z,1.43
2022-09-22T11:38:36.495Z,1.60
2022-09-22T11:41:42.682Z,1.50
2022-09-22T11:45:04.582Z,1.60
2022-09-22T11:48:26.474Z,1.33
2022-09-22T11:51:54.018Z,1.50
2022-09-22T11:55:04.379Z,1.80
2022-09-22T11:58:09.711Z,1.40
2022-09-22T12:01:13.968Z,1.57
2022-09-22T12:04:20.206Z,1.50
2022-09-22T12:07:28.776Z,1.47
2022-09-22T12:10:35.473Z,1.40
2022-09-22T12:13:41.295Z,1.17
2022-09-22T12:16:47.439Z,1.20
2022-09-22T12:19:54.061Z,1.30
2022-09-22T12:22:58.492Z,1.17
2022-09-22T12:26:02.711Z,1.20
2022-09-22T12:29:16.533Z,4.97
2022-09-22T12:32:23.737Z,1.27
2022-09-22T12:35:31.039Z,2.50
2022-09-22T12:38:33.243Z,1.80
2022-09-22T12:41:42.537Z,1.30
2022-09-22T12:44:45.696Z,1.40
2022-09-22T12:47:52.061Z,1.30
2022-09-22T12:51:13.602Z,1.57
2022-09-22T12:54:24.318Z,1.60
2022-09-22T12:57:26.959Z,1.77
2022-09-22T13:00:36.434Z,1.40
2022-09-22T13:03:38.020Z,1.30
2022-09-22T13:06:39.563Z,1.20
2022-09-22T13:09:41.177Z,1.20
2022-09-22T13:13:12.321Z,1.53
2022-09-22T13:16:13.868Z,1.60
2022-09-22T13:19:15.502Z,1.37
2022-09-22T13:22:18.015Z,1.10
2022-09-22T13:25:24.036Z,1.20
2022-09-22T13:28:26.088Z,1.93
2022-09-22T13:31:27.727Z,2.23
2022-09-22T13:34:36.671Z,2.13
2022-09-22T13:37:38.624Z,1.83
2022-09-22T13:40:45.105Z,1.33
2022-09-22T13:43:48.321Z,0.90
2022-09-22T13:46:50.387Z,0.70
2022-09-22T13:49:56.445Z,0.80
2022-09-22T13:52:59.829Z,1.00
2022-09-22T13:56:01.835Z,0.83
2022-09-22T13:59:03.573Z,0.93
2022-09-22T14:02:07.421Z,0.80
2022-09-22T14:05:17.003Z,1.13
2022-09-22T14:08:20.535Z,1.33
2022-09-22T14:11:28.395Z,0.97
2022-09-22T14:14:30.222Z,1.10
2022-09-22T14:17:31.956Z,1.17
2022-09-22T14:20:38.203Z,1.40
2022-09-22T14:23:44.971Z,1.20
2022-09-22T14:26:50.948Z,1.00
2022-09-22T14:29:53.573Z,1.20
2022-09-22T14:32:57.603Z,1.30
2022-09-22T14:36:04.869Z,1.60
2022-09-22T14:39:10.460Z,1.10
2022-09-22T14:42:17.974Z,1.10
2022-09-22T14:45:20.985Z,0.93
2022-09-22T14:48:28.599Z,1.00
2022-09-22T14:51:36.832Z,1.20
2022-09-22T14:54:39.755Z,1.37
2022-09-22T14:57:46.594Z,1.70
2022-09-22T15:01:11.401Z,1.80
2022-09-22T15:04:18.958Z,1.20
2022-09-22T15:07:29.269Z,1.70
2022-09-22T15:10:31.975Z,1.57
2022-09-22T15:13:33.602Z,1.10
2022-09-22T15:16:39.875Z,1.23
2022-09-22T15:19:41.546Z,1.20
2022-09-22T15:22:46.084Z,1.20
2022-09-22T15:25:48.126Z,1.20
2022-09-22T15:28:52.436Z,1.10
2022-09-22T15:31:54.175Z,1.00
2022-09-22T15:34:56.122Z,1.50
2022-09-22T15:37:57.936Z,1.40
2022-09-22T15:40:59.737Z,1.17
2022-09-22T15:44:01.799Z,1.00
2022-09-22T15:47:03.806Z,1.13
2022-09-22T15:50:06.646Z,1.10
2022-09-22T15:53:08.951Z,1.33
2022-09-22T15:56:15.466Z,1.20
2022-09-22T15:59:28.172Z,1.57
2022-09-22T16:02:32.098Z,1.37
2022-09-22T16:05:34.587Z,1.40
2022-09-22T16:08:40.248Z,4.30
2022-09-22T16:11:41.830Z,3.63
2022-09-22T16:14:43.417Z,2.90
2022-09-22T16:17:45.819Z,4.53
2022-09-22T16:20:48.365Z,4.60
2022-09-22T16:23:50.090Z,6.07
2022-09-22T16:26:51.906Z,4.53
2022-09-22T16:29:53.584Z,3.30
2022-09-22T16:32:55.462Z,2.80
2022-09-22T16:35:57.113Z,6.03
2022-09-22T16:38:59.188Z,3.53
2022-09-22T16:42:00.790Z,3.30
2022-09-22T16:45:03.971Z,4.43
2022-09-22T16:48:07.072Z,5.47
2022-09-22T16:51:09.859Z,9.20
2022-09-22T16:54:13.791Z,9.10
2022-09-22T16:57:15.456Z,5.43
2022-09-22T17:00:17.131Z,6.07
2022-09-22T17:03:19.016Z,10.10
2022-09-22T17:06:25.266Z,7.87
2022-09-22T17:09:27.411Z,6.60
2022-09-22T17:12:29.307Z,6.57
2022-09-22T17:15:36.847Z,5.37
2022-09-22T17:18:41.928Z,5.50
2022-09-22T17:21:43.910Z,5.73
2022-09-22T17:24:45.486Z,6.20
2022-09-22T17:27:47.101Z,8.30
2022-09-22T17:30:58.488Z,8.10
2022-09-22T17:34:00.659Z,6.97
2022-09-22T17:37:03.188Z,6.53
2022-09-22T17:40:05.240Z,5.27
2022-09-22T17:43:06.998Z,5.87
2022-09-22T17:46:12.006Z,6.80
2022-09-22T17:49:35.576Z,7.73
2022-09-22T17:52:56.113Z,6.77
2022-09-22T17:56:01.907Z,8.90
2022-09-22T17:59:03.839Z,6.00
2022-09-22T18:02:08.645Z,6.27
2022-09-22T18:05:11.946Z,5.93
2022-09-22T18:08:14.125Z,4.73
2022-09-22T18:11:15.813Z,5.30
2022-09-22T18:14:18.076Z,4.97
2022-09-22T18:17:21.357Z,5.13
2022-09-22T18:20:23.167Z,6.23
2022-09-22T18:23:28.369Z,6.57
2022-09-22T18:26:36.027Z,6.97
2022-09-22T18:29:37.708Z,7.10
2022-09-22T18:32:40.156Z,8.80
2022-09-22T18:35:45.982Z,5.80
2022-09-22T18:38:47.784Z,4.53
2022-09-22T18:41:49.930Z,5.20
2022-09-22T18:44:51.714Z,4.43
2022-09-22T18:47:53.741Z,4.27
2022-09-22T18:50:55.407Z,4.73
2022-09-22T18:53:57.330Z,4.47
2022-09-22T18:56:59.329Z,4.83
2022-09-22T19:00:01.243Z,4.97
2022-09-22T19:03:02.924Z,6.00
2022-09-22T19:06:04.824Z,5.93
2022-09-22T19:09:07.155Z,4.70
2022-09-22T19:12:09.408Z,3.80
2022-09-22T19:15:15.443Z,3.40
2022-09-22T19:18:19.528Z,3.93
2022-09-22T19:21:22.527Z,4.20
2022-09-22T19:24:25.160Z,4.00
2022-09-22T19:27:26.752Z,3.90
2022-09-22T19:30:31.335Z,3.40
2022-09-22T19:33:33.405Z,2.67
2022-09-22T19:36:35.737Z,3.20
2022-09-22T19:39:37.391Z,2.80
2022-09-22T19:42:40.431Z,2.80
2022-09-22T19:45:42.297Z,3.07
2022-09-22T19:48:44.003Z,3.60
2022-09-22T19:51:45.605Z,3.27
2022-09-22T19:54:50.441Z,3.33
2022-09-22T19:57:52.412Z,3.13
2022-09-22T20:00:54.026Z,2.63
2022-09-22T20:03:56.084Z,2.70
2022-09-22T20:06:57.691Z,2.83
2022-09-22T20:10:01.970Z,2.67
2022-09-22T20:13:23.895Z,4.47
2022-09-22T20:16:28.061Z,2.53
2022-09-22T20:19:33.644Z,2.80
2022-09-22T20:22:35.216Z,2.40
2022-09-22T20:25:36.825Z,3.20
2022-09-22T20:28:41.219Z,2.87
2022-09-22T20:31:43.121Z,2.80
2022-09-22T20:34:44.683Z,3.43
2022-09-22T20:37:46.350Z,3.60
2022-09-22T20:40:48.384Z,3.17
2022-09-22T20:43:50.085Z,3.37
2022-09-22T20:46:51.716Z,2.90
2022-09-22T20:49:53.404Z,3.10
2022-09-22T20:52:55.519Z,2.73
2022-09-22T20:56:03.301Z,2.70
2022-09-22T20:59:05.004Z,2.47
2022-09-22T21:02:07.261Z,2.60
2022-09-22T21:05:09.371Z,2.43
2022-09-22T21:08:29.489Z,2.80
2022-09-22T21:11:31.179Z,2.60
2022-09-22T21:14:35.390Z,2.80
2022-09-22T21:17:38.437Z,2.87
2022-09-22T21:20:42.668Z,2.60
2022-09-22T21:23:45.056Z,2.93
2022-09-22T21:26:46.897Z,2.90
2022-09-22T21:29:49.125Z,2.83
2022-09-22T21:32:50.999Z,3.03
2022-09-22T21:36:04.647Z,2.40
2022-09-22T21:39:06.493Z,3.40
2022-09-22T21:42:08.069Z,2.50
2022-09-22T21:45:10.023Z,2.40
2022-09-22T21:48:11.652Z,2.90
2022-09-22T21:51:15.092Z,2.70
2022-09-22T21:54:17.774Z,3.00
2022-09-22T21:57:19.398Z,2.50
2022-09-22T22:00:36.907Z,2.53
2022-09-22T22:03:43.368Z,2.40
2022-09-22T22:06:45.694Z,2.67
2022-09-22T22:09:47.547Z,2.50
2022-09-22T22:12:49.142Z,2.20
2022-09-22T22:15:57.076Z,2.13
2022-09-22T22:18:58.765Z,2.63
2022-09-22T22:22:00.518Z,2.60
2022-09-22T22:25:12.682Z,2.67
2022-09-22T22:28:14.400Z,2.40
2022-09-22T22:31:17.910Z,2.50
2022-09-22T22:34:20.694Z,2.50
2022-09-22T22:37:22.243Z,2.60
2022-09-22T22:40:23.870Z,2.60
2022-09-22T22:43:25.504Z,3.10
2022-09-22T22:46:27.243Z,2.23
2022-09-22T22:49:28.841Z,2.70
2022-09-22T22:52:31.313Z,3.00
2022-09-22T22:55:32.952Z,2.70
2022-09-22T22:58:35.751Z,2.63
2022-09-22T23:01:37.617Z,2.70
2022-09-22T23:04:39.507Z,3.17
2022-09-22T23:07:41.087Z,3.10
2022-09-22T23:10:42.685Z,3.03
2022-09-22T23:13:51.298Z,2.57
2022-09-22T23:16:52.863Z,2.57
2022-09-22T23:19:54.460Z,2.60
2022-09-22T23:22:56.093Z,2.70
2022-09-22T23:25:57.826Z,2.90
2022-09-22T23:28:59.727Z,3.00
2022-09-22T23:32:01.607Z,2.60
2022-09-22T23:35:03.245Z,2.57
2022-09-22T23:38:07.788Z,2.33
2022-09-22T23:41:10.997Z,2.57
2022-09-22T23:44:12.764Z,2.73
2022-09-22T23:47:16.302Z,2.77
2022-09-22T23:50:18.433Z,6.90
2022-09-22T23:53:22.733Z,3.03
2022-09-22T23:56:24.490Z,3.20
2022-09-22T23:59:26.072Z,3.33
